Time;durP1;ratioP1;P1;durP2;ratioP2;P2;SDS_P1;SDS_P2;PMS_P1;PMS_P2;Temp;Humidity;BMP_temperature;BMP_pressure;BME280_temperature;BME280_humidity;BME280_pressure;Samples;Min_cycle;Max_cycle;Signal;HPM_P1;HPM_P2
2024/01/16 00:02:19;;;;;;;;;;;0.40;99.90;;;;;;5067745;28;20454;-77
2024/01/16 00:04:45;;;;;;;;;;;0.30;99.90;;;;;;5061504;28;19920;-76
2024/01/16 00:07:10;;;;;;;;;;;0.30;99.90;;;;;;5045949;28;19920;-76
2024/01/16 00:09:36;;;;;;;;;;;0.30;99.90;;;;;;5068818;28;19932;-77
2024/01/16 00:12:03;;;;;;;;;;;0.20;99.90;;;;;;5050631;28;20008;-76
2024/01/16 00:14:29;;;;;;;;;;;0.70;99.90;;;;;;5065775;28;19931;-75
2024/01/16 00:16:55;;;;;;;;;;;0.20;99.90;;;;;;5045739;28;19951;-76
2024/01/16 00:19:21;;;;;;;;;;;0.10;99.90;;;;;;5063071;28;19920;-76
2024/01/16 00:21:47;;;;;;;;;;;0.10;99.90;;;;;;5050595;28;19974;-76
2024/01/16 00:24:15;;;;;;;;;;;0.00;99.90;;;;;;5048201;28;19951;-76
2024/01/16 00:26:41;;;;;;;;;;;1.00;99.90;;;;;;5068354;28;20156;-76
2024/01/16 00:29:08;;;;;;;;;;;0.00;99.90;;;;;;5034206;28;19924;-76
2024/01/16 00:31:34;;;;;;;;;;;0.00;99.90;;;;;;5048630;28;19920;-76
2024/01/16 00:34:00;;;;;;;;;;;0.00;99.90;;;;;;5045115;28;19921;-76
2024/01/16 00:36:27;;;;;;;;;;;0.00;99.90;;;;;;5050032;28;19924;-76
2024/01/16 00:38:52;;;;;;;;;;;0.00;99.90;;;;;;5046208;28;20324;-76
2024/01/16 00:41:18;;;;;;;;;;;0.00;99.90;;;;;;5052005;28;20018;-76
2024/01/16 00:43:43;;;;;;;;;;;0.10;99.90;;;;;;5051105;28;20360;-75
2024/01/16 00:46:09;;;;;;;;;;;-0.60;99.90;;;;;;5037905;28;19973;-75
2024/01/16 00:48:34;;;;;;;;;;;-0.10;99.90;;;;;;5066490;28;20396;-75
2024/01/16 00:51:00;;;;;;;;;;;-0.10;99.90;;;;;;5049390;28;20386;-75
2024/01/16 00:53:26;;;;;;;;;;;-0.10;99.90;;;;;;5050595;28;19927;-75
2024/01/16 00:55:54;;;;;;;;;;;-0.10;99.90;;;;;;5072927;28;19966;-75
2024/01/16 00:58:19;;;;;;;;;;;0.10;99.90;;;;;;5061867;28;19934;-76
2024/01/16 01:00:45;;;;;;;;;;;0.00;99.90;;;;;;5067418;28;19925;-74
2024/01/16 01:03:10;;;;;;;;;;;0.00;99.90;;;;;;5053959;28;20316;-76
2024/01/16 01:05:36;;;;;;;;;;;0.10;99.90;;;;;;5053442;28;20435;-76
2024/01/16 01:08:01;;;;;;;;;;;0.70;99.90;;;;;;5054418;28;20073;-76
2024/01/16 01:10:27;;;;;;;;;;;1.00;99.90;;;;;;5054861;28;19943;-76
2024/01/16 01:12:53;;;;;;;;;;;0.80;99.90;;;;;;5070272;28;20345;-76
2024/01/16 01:15:20;;;;;;;;;;;0.40;99.90;;;;;;5058437;28;20565;-76
2024/01/16 01:17:48;;;;;;;;;;;0.20;99.90;;;;;;5053084;28;19970;-75
2024/01/16 01:20:13;;;;;;;;;;;0.10;99.90;;;;;;5043063;28;19971;-76
2024/01/16 01:22:39;;;;;;;;;;;0.10;99.90;;;;;;5051779;28;19924;-76
2024/01/16 01:25:05;;;;;;;;;;;0.10;99.90;;;;;;5053549;28;19933;-76
2024/01/16 01:27:30;;;;;;;;;;;0.00;99.90;;;;;;5051724;28;20426;-76
2024/01/16 01:29:56;;;;;;;;;;;0.00;99.90;;;;;;5050761;28;20359;-76
2024/01/16 01:32:21;;;;;;;;;;;0.00;99.90;;;;;;5048331;28;20399;-76
2024/01/16 01:34:47;;;;;;;;;;;-0.10;99.90;;;;;;5032489;28;19921;-76
2024/01/16 01:37:12;;;;;;;;;;;-0.10;99.90;;;;;;5047311;28;19924;-76
2024/01/16 01:39:38;;;;;;;;;;;-0.10;99.90;;;;;;5051401;28;20354;-76
2024/01/16 01:42:04;;;;;;;;;;;-0.10;99.90;;;;;;5050542;28;20431;-76
2024/01/16 01:44:29;;;;;;;;;;;0.10;99.90;;;;;;5053604;28;19974;-76
2024/01/16 01:46:55;;;;;;;;;;;-0.10;99.90;;;;;;5057158;28;19921;-76
2024/01/16 01:49:21;;;;;;;;;;;-0.10;99.90;;;;;;5047511;28;20368;-75
2024/01/16 01:51:47;;;;;;;;;;;-0.10;99.90;;;;;;5046913;28;19923;-76
2024/01/16 01:54:13;;;;;;;;;;;-0.10;99.90;;;;;;5041312;28;20365;-76
2024/01/16 01:56:39;;;;;;;;;;;-0.10;99.90;;;;;;5048236;28;19924;-74
2024/01/16 01:59:05;;;;;;;;;;;-0.10;99.90;;;;;;5030189;28;19924;-73
2024/01/16 02:01:31;;;;;;;;;;;-0.10;99.90;;;;;;5044154;28;20326;-74
2024/01/16 02:03:57;;;;;;;;;;;-0.10;99.90;;;;;;5039037;28;19931;-74
2024/01/16 02:06:23;;;;;;;;;;;-0.10;99.90;;;;;;5047460;28;19921;-74
2024/01/16 02:08:49;;;;;;;;;;;0.40;99.90;;;;;;5048711;28;20290;-74
2024/01/16 02:11:15;;;;;;;;;;;-0.20;99.90;;;;;;5050445;28;19921;-74
2024/01/16 02:13:41;;;;;;;;;;;0.90;99.90;;;;;;5051332;28;19921;-74
2024/01/16 02:16:17;;;;;;;;;;;-0.10;99.90;;;;;;5064785;28;20437;-75
2024/01/16 02:18:42;;;;;;;;;;;-0.10;99.90;;;;;;5042157;28;19928;-74
2024/01/16 02:21:08;;;;;;;;;;;-0.10;99.90;;;;;;5043222;28;20369;-74
2024/01/16 02:23:34;;;;;;;;;;;-0.10;99.90;;;;;;5050276;28;20163;-75
2024/01/16 02:26:00;;;;;;;;;;;-0.10;99.90;;;;;;5050186;28;20398;-75
2024/01/16 02:28:25;;;;;;;;;;;-0.10;99.90;;;;;;5040710;28;19932;-75
2024/01/16 02:30:51;;;;;;;;;;;0.00;99.90;;;;;;5028459;28;20328;-75
2024/01/16 02:33:17;;;;;;;;;;;0.00;99.90;;;;;;5043584;28;19921;-75
2024/01/16 02:35:42;;;;;;;;;;;0.00;99.90;;;;;;5034278;28;19928;-75
2024/01/16 02:38:08;;;;;;;;;;;0.10;99.90;;;;;;5040000;28;20402;-75
2024/01/16 02:40:33;;;;;;;;;;;0.10;99.90;;;;;;5050204;28;20341;-75
2024/01/16 02:42:59;;;;;;;;;;;0.10;99.90;;;;;;5051826;28;20363;-75
2024/01/16 02:45:24;;;;;;;;;;;0.40;99.90;;;;;;5047301;28;20343;-75
2024/01/16 02:47:50;;;;;;;;;;;0.10;99.90;;;;;;5048196;28;19932;-75
2024/01/16 02:50:15;;;;;;;;;;;-0.20;99.90;;;;;;5046308;28;20276;-76
2024/01/16 02:52:41;;;;;;;;;;;0.10;99.90;;;;;;5049334;28;19921;-75
2024/01/16 02:55:07;;;;;;;;;;;0.10;99.90;;;;;;5045832;28;19924;-75
2024/01/16 02:57:32;;;;;;;;;;;0.10;99.90;;;;;;5051277;28;19928;-75
2024/01/16 02:59:58;;;;;;;;;;;0.10;99.90;;;;;;5035579;28;19928;-75
2024/01/16 03:02:24;;;;;;;;;;;0.60;99.90;;;;;;5049095;28;19929;-75
2024/01/16 03:04:49;;;;;;;;;;;0.10;99.90;;;;;;5050551;28;20358;-74
2024/01/16 03:07:15;;;;;;;;;;;0.10;99.90;;;;;;5048970;28;20027;-75
2024/01/16 03:09:41;;;;;;;;;;;0.10;99.90;;;;;;5049230;28;19920;-75
2024/01/16 03:12:06;;;;;;;;;;;0.80;99.90;;;;;;5049421;28;19920;-75
2024/01/16 03:14:34;;;;;;;;;;;0.10;99.90;;;;;;5047600;28;19974;-76
2024/01/16 03:17:03;;;;;;;;;;;0.10;99.90;;;;;;5047690;28;20308;-74
2024/01/16 03:19:28;;;;;;;;;;;0.10;99.90;;;;;;5063209;28;19947;-75
2024/01/16 03:21:54;;;;;;;;;;;0.00;99.90;;;;;;5051113;28;19926;-75
2024/01/16 03:24:20;;;;;;;;;;;0.00;99.90;;;;;;5050245;28;19966;-75
2024/01/16 03:26:45;;;;;;;;;;;0.00;99.90;;;;;;5040271;28;20411;-75
2024/01/16 03:29:11;;;;;;;;;;;0.00;99.90;;;;;;5052013;28;19927;-74
2024/01/16 03:31:36;;;;;;;;;;;0.80;99.90;;;;;;5051630;28;19943;-75
2024/01/16 03:34:02;;;;;;;;;;;-0.10;99.90;;;;;;5057493;28;19959;-74
2024/01/16 03:36:27;;;;;;;;;;;-0.10;99.90;;;;;;5045294;28;19928;-74
2024/01/16 03:38:53;;;;;;;;;;;-0.10;99.90;;;;;;5062867;28;19921;-74
2024/01/16 03:41:18;;;;;;;;;;;-0.10;99.90;;;;;;5068119;28;19916;-74
2024/01/16 03:43:44;;;;;;;;;;;-0.10;99.90;;;;;;5049533;28;19920;-74
2024/01/16 03:46:12;;;;;;;;;;;-0.10;99.90;;;;;;5068876;28;19965;-74
2024/01/16 03:48:39;;;;;;;;;;;-0.10;99.90;;;;;;5031853;28;19920;-74
2024/01/16 03:51:05;;;;;;;;;;;-0.10;99.90;;;;;;5031989;28;20403;-74
2024/01/16 03:53:32;;;;;;;;;;;-0.10;99.90;;;;;;5035946;28;20047;-74
2024/01/16 03:55:57;;;;;;;;;;;-0.10;99.90;;;;;;5031983;28;20004;-74
2024/01/16 03:58:23;;;;;;;;;;;0.20;99.90;;;;;;5047515;28;19920;-74
2024/01/16 04:00:50;;;;;;;;;;;0.00;99.90;;;;;;5048755;28;19924;-74
2024/01/16 04:03:16;;;;;;;;;;;0.00;99.90;;;;;;5062413;28;19947;-74
2024/01/16 04:05:42;;;;;;;;;;;0.00;99.90;;;;;;5068169;28;20364;-74
2024/01/16 04:08:07;;;;;;;;;;;0.00;99.90;;;;;;5050146;28;20401;-74
2024/01/16 04:10:33;;;;;;;;;;;0.10;99.90;;;;;;5069547;28;20408;-74
2024/01/16 04:13:02;;;;;;;;;;;0.10;99.90;;;;;;5036033;28;19921;-74
2024/01/16 04:15:28;;;;;;;;;;;0.10;99.90;;;;;;5030281;28;19932;-74
2024/01/16 04:17:54;;;;;;;;;;;0.10;99.90;;;;;;5063204;28;20295;-74
2024/01/16 04:20:19;;;;;;;;;;;0.20;99.90;;;;;;5045226;28;19931;-75
2024/01/16 04:22:45;;;;;;;;;;;0.20;99.90;;;;;;5033634;28;19929;-74
2024/01/16 04:25:11;;;;;;;;;;;0.20;99.90;;;;;;5069419;28;19928;-74
2024/01/16 04:27:36;;;;;;;;;;;0.20;99.90;;;;;;5038773;28;20004;-74
2024/01/16 04:30:02;;;;;;;;;;;0.20;99.90;;;;;;5058725;28;19920;-74
2024/01/16 04:32:28;;;;;;;;;;;0.30;99.90;;;;;;5038813;28;19921;-74
2024/01/16 04:34:54;;;;;;;;;;;0.30;99.90;;;;;;5066137;28;19974;-74
2024/01/16 04:37:19;;;;;;;;;;;0.30;99.90;;;;;;5046757;28;19923;-74
2024/01/16 04:39:45;;;;;;;;;;;0.20;99.90;;;;;;5065087;28;19947;-74
2024/01/16 04:42:11;;;;;;;;;;;0.30;99.90;;;;;;5061045;28;19928;-73
2024/01/16 04:44:37;;;;;;;;;;;0.30;99.90;;;;;;5054942;28;20340;-74
2024/01/16 04:47:02;;;;;;;;;;;0.30;99.90;;;;;;5060709;28;20011;-74
2024/01/16 04:49:28;;;;;;;;;;;0.80;99.90;;;;;;5065799;28;19959;-74
2024/01/16 04:51:53;;;;;;;;;;;0.30;99.90;;;;;;5054643;28;19921;-74
2024/01/16 04:54:19;;;;;;;;;;;0.30;99.90;;;;;;5052548;28;19959;-73
2024/01/16 04:56:45;;;;;;;;;;;1.00;99.90;;;;;;5073387;28;20046;-74
2024/01/16 04:59:10;;;;;;;;;;;0.30;99.90;;;;;;5053105;28;19970;-74
2024/01/16 05:01:36;;;;;;;;;;;0.30;99.90;;;;;;5046960;28;19959;-74
2024/01/16 05:04:03;;;;;;;;;;;1.20;99.90;;;;;;5061496;28;19924;-74
2024/01/16 05:06:29;;;;;;;;;;;0.30;99.90;;;;;;5071818;28;19921;-73
2024/01/16 05:08:55;;;;;;;;;;;0.40;99.90;;;;;;5070895;28;19924;-74
2024/01/16 05:11:20;;;;;;;;;;;0.40;99.90;;;;;;5053997;28;20011;-74
2024/01/16 05:13:46;;;;;;;;;;;0.40;99.90;;;;;;5050282;28;20368;-74
2024/01/16 05:16:12;;;;;;;;;;;0.40;99.90;;;;;;5044576;28;19921;-74
2024/01/16 05:18:41;;;;;;;;;;;0.60;99.90;;;;;;5068950;28;20375;-74
2024/01/16 05:21:07;;;;;;;;;;;0.40;99.90;;;;;;5051674;28;19924;-74
2024/01/16 05:23:32;;;;;;;;;;;0.30;99.90;;;;;;5049067;28;19921;-73
2024/01/16 05:25:58;;;;;;;;;;;0.30;99.90;;;;;;5065745;28;19927;-74
2024/01/16 05:28:23;;;;;;;;;;;0.30;99.90;;;;;;5043686;28;19917;-74
2024/01/16 05:30:49;;;;;;;;;;;0.30;99.90;;;;;;5033064;28;19921;-74
2024/01/16 05:33:14;;;;;;;;;;;0.30;99.90;;;;;;5043424;28;19935;-74
2024/01/16 05:35:40;;;;;;;;;;;0.30;99.90;;;;;;5051271;28;19965;-75
2024/01/16 05:38:06;;;;;;;;;;;0.30;99.90;;;;;;5070628;28;19928;-74
2024/01/16 05:40:32;;;;;;;;;;;0.40;99.90;;;;;;5070629;28;19924;-74
2024/01/16 05:42:57;;;;;;;;;;;0.40;99.90;;;;;;5052266;28;19920;-74
2024/01/16 05:45:23;;;;;;;;;;;0.30;99.90;;;;;;5043913;28;19921;-74
2024/01/16 05:47:48;;;;;;;;;;;0.40;99.90;;;;;;5035684;28;19921;-74
2024/01/16 05:50:16;;;;;;;;;;;0.40;99.90;;;;;;5048195;28;20283;-74
2024/01/16 05:52:42;;;;;;;;;;;0.40;99.90;;;;;;5039834;28;19920;-74
2024/01/16 05:55:07;;;;;;;;;;;0.40;99.90;;;;;;5051211;28;20031;-75
2024/01/16 05:57:33;;;;;;;;;;;0.40;99.90;;;;;;5054934;28;20030;-74
2024/01/16 05:59:59;;;;;;;;;;;0.40;99.90;;;;;;5046712;28;19923;-75
2024/01/16 06:02:24;;;;;;;;;;;0.50;99.90;;;;;;5066124;28;20466;-74
2024/01/16 06:04:50;;;;;;;;;;;0.50;99.90;;;;;;5052184;28;19974;-74
2024/01/16 06:07:16;;;;;;;;;;;0.40;99.90;;;;;;5054279;28;19970;-73
2024/01/16 06:09:42;;;;;;;;;;;1.00;99.90;;;;;;5048760;28;19925;-74
2024/01/16 06:12:07;;;;;;;;;;;0.40;99.90;;;;;;5062351;28;19927;-75
2024/01/16 06:14:33;;;;;;;;;;;0.50;99.90;;;;;;5072076;28;19920;-74
2024/01/16 06:16:59;;;;;;;;;;;0.40;99.90;;;;;;5034739;28;19971;-75
2024/01/16 06:19:24;;;;;;;;;;;0.40;99.90;;;;;;5050768;28;19931;-75
2024/01/16 06:21:50;;;;;;;;;;;0.50;99.90;;;;;;5048712;28;19982;-74
2024/01/16 06:24:16;;;;;;;;;;;0.40;99.90;;;;;;5046412;28;19920;-75
2024/01/16 06:26:42;;;;;;;;;;;0.50;99.90;;;;;;5041409;28;20392;-74
2024/01/16 06:29:07;;;;;;;;;;;0.50;99.90;;;;;;5040201;28;19928;-74
2024/01/16 06:31:33;;;;;;;;;;;0.40;99.90;;;;;;5044940;28;19920;-74
2024/01/16 06:33:58;;;;;;;;;;;0.50;99.90;;;;;;5042524;28;19927;-74
2024/01/16 06:36:24;;;;;;;;;;;0.50;99.90;;;;;;5047070;28;19920;-74
2024/01/16 06:38:49;;;;;;;;;;;0.50;99.90;;;;;;5049518;28;19923;-74
2024/01/16 06:41:15;;;;;;;;;;;0.50;99.90;;;;;;5046694;28;19956;-73
2024/01/16 06:43:40;;;;;;;;;;;0.40;99.90;;;;;;5046978;28;19983;-74
2024/01/16 06:46:06;;;;;;;;;;;0.40;99.90;;;;;;5038169;28;20004;-76
2024/01/16 06:48:31;;;;;;;;;;;0.40;99.90;;;;;;5047311;28;19939;-75
2024/01/16 06:50:57;;;;;;;;;;;0.40;99.90;;;;;;5049051;28;19995;-75
2024/01/16 06:53:23;;;;;;;;;;;0.40;99.90;;;;;;5047955;28;19920;-74
2024/01/16 06:55:48;;;;;;;;;;;0.40;99.90;;;;;;5042205;28;19920;-75
2024/01/16 06:58:14;;;;;;;;;;;0.40;99.90;;;;;;5037841;28;19921;-75
2024/01/16 07:00:41;;;;;;;;;;;0.40;99.90;;;;;;5048632;28;19982;-75
2024/01/16 07:03:07;;;;;;;;;;;0.40;99.90;;;;;;5037481;28;20361;-75
2024/01/16 07:05:32;;;;;;;;;;;0.40;99.90;;;;;;5028869;28;19928;-75
2024/01/16 07:07:58;;;;;;;;;;;0.40;99.90;;;;;;5038956;28;20013;-74
2024/01/16 07:10:24;;;;;;;;;;;0.40;99.90;;;;;;5041269;28;19921;-74
2024/01/16 07:12:51;;;;;;;;;;;0.40;99.90;;;;;;5042719;28;19970;-75
2024/01/16 07:15:17;;;;;;;;;;;0.40;99.90;;;;;;5042192;28;20356;-74
2024/01/16 07:17:42;;;;;;;;;;;0.30;99.90;;;;;;5063030;28;19985;-74
2024/01/16 07:20:08;;;;;;;;;;;0.30;99.90;;;;;;5042371;28;19924;-74
2024/01/16 07:22:34;;;;;;;;;;;0.30;99.90;;;;;;5048972;28;20368;-75
2024/01/16 07:24:59;;;;;;;;;;;0.30;99.90;;;;;;5062487;28;20326;-74
2024/01/16 07:27:25;;;;;;;;;;;0.30;99.90;;;;;;5048678;28;19930;-74
2024/01/16 07:29:51;;;;;;;;;;;0.30;99.90;;;;;;5045883;28;20268;-75
2024/01/16 07:32:16;;;;;;;;;;;0.30;99.90;;;;;;5039676;28;19927;-75
2024/01/16 07:34:42;;;;;;;;;;;0.30;99.90;;;;;;5070595;28;19921;-74
2024/01/16 07:37:07;;;;;;;;;;;0.30;99.90;;;;;;5050527;28;20036;-74
2024/01/16 07:39:33;;;;;;;;;;;0.70;99.90;;;;;;5049541;28;19920;-74
2024/01/16 07:41:59;;;;;;;;;;;0.30;99.90;;;;;;5048940;28;20049;-74
2024/01/16 07:44:24;;;;;;;;;;;0.30;99.90;;;;;;5039601;28;20352;-74
2024/01/16 07:46:50;;;;;;;;;;;0.30;99.90;;;;;;5044641;28;20360;-74
2024/01/16 07:49:16;;;;;;;;;;;0.40;99.90;;;;;;5047044;28;19920;-74
2024/01/16 07:51:42;;;;;;;;;;;0.40;99.90;;;;;;5051242;28;19920;-75
2024/01/16 07:54:08;;;;;;;;;;;0.30;99.90;;;;;;5047706;28;19943;-74
2024/01/16 07:56:35;;;;;;;;;;;1.20;99.90;;;;;;5084428;28;20502;-74
2024/01/16 07:59:01;;;;;;;;;;;0.40;99.90;;;;;;5036876;28;19920;-74
2024/01/16 08:01:29;;;;;;;;;;;0.40;99.90;;;;;;5048095;28;19978;-75
2024/01/16 08:03:55;;;;;;;;;;;0.40;99.90;;;;;;5043064;28;19931;-75
2024/01/16 08:06:21;;;;;;;;;;;0.50;99.90;;;;;;5048072;28;20379;-74
2024/01/16 08:08:47;;;;;;;;;;;0.50;99.90;;;;;;5049540;28;20286;-74
2024/01/16 08:11:13;;;;;;;;;;;0.50;99.90;;;;;;5050644;28;20019;-74
2024/01/16 08:13:38;;;;;;;;;;;0.50;99.90;;;;;;5050048;28;19943;-74
2024/01/16 08:16:04;;;;;;;;;;;0.50;99.90;;;;;;5045831;28;19924;-74
2024/01/16 08:18:31;;;;;;;;;;;0.60;99.90;;;;;;5066067;28;19920;-74
2024/01/16 08:20:56;;;;;;;;;;;0.60;99.90;;;;;;5047453;28;19924;-75
2024/01/16 08:23:22;;;;;;;;;;;0.70;99.90;;;;;;5047050;28;20359;-74
2024/01/16 08:25:48;;;;;;;;;;;0.70;99.90;;;;;;5044273;28;20023;-74
2024/01/16 08:28:14;;;;;;;;;;;0.90;99.90;;;;;;5043277;28;19920;-74
2024/01/16 08:30:40;;;;;;;;;;;0.70;99.90;;;;;;5040975;28;19956;-75
2024/01/16 08:33:06;;;;;;;;;;;2.50;99.90;;;;;;5043604;28;19975;-74
2024/01/16 08:35:31;;;;;;;;;;;1.00;99.90;;;;;;5044747;28;20007;-74
2024/01/16 08:37:57;;;;;;;;;;;1.20;99.90;;;;;;5047205;28;19926;-75
2024/01/16 08:40:22;;;;;;;;;;;0.80;99.90;;;;;;5040716;28;20008;-74
2024/01/16 08:42:52;;;;;;;;;;;0.80;99.90;;;;;;5061058;28;20297;-74
2024/01/16 08:45:17;;;;;;;;;;;2.30;99.90;;;;;;5049001;28;19927;-74
2024/01/16 08:47:43;;;;;;;;;;;1.30;99.90;;;;;;5051243;28;19939;-74
2024/01/16 08:50:09;;;;;;;;;;;0.80;99.90;;;;;;5049553;28;20039;-74
2024/01/16 08:52:35;;;;;;;;;;;0.90;99.90;;;;;;5068195;28;19920;-74
2024/01/16 08:55:03;;;;;;;;;;;0.90;99.90;;;;;;5066447;28;20287;-74
2024/01/16 08:57:29;;;;;;;;;;;0.90;99.90;;;;;;5044670;28;19921;-74
2024/01/16 08:59:55;;;;;;;;;;;1.00;99.90;;;;;;5040837;28;20380;-78
2024/01/16 09:02:20;;;;;;;;;;;1.00;99.90;;;;;;5038294;28;19936;-76
2024/01/16 09:04:47;;;;;;;;;;;1.10;99.90;;;;;;5045359;28;19917;-74
2024/01/16 09:07:15;;;;;;;;;;;1.20;99.90;;;;;;5036823;28;20272;-75
2024/01/16 09:09:42;;;;;;;;;;;1.20;99.90;;;;;;5046652;28;19927;-75
2024/01/16 09:12:08;;;;;;;;;;;1.20;99.90;;;;;;5047264;28;20474;-76
2024/01/16 09:14:34;;;;;;;;;;;1.20;99.90;;;;;;5049658;28;20378;-76
2024/01/16 09:16:59;;;;;;;;;;;1.30;99.90;;;;;;5052770;28;20216;-75
2024/01/16 09:19:25;;;;;;;;;;;1.30;99.90;;;;;;5052383;28;19982;-75
2024/01/16 09:21:50;;;;;;;;;;;1.30;99.90;;;;;;5045586;28;20356;-76
2024/01/16 09:24:16;;;;;;;;;;;1.30;99.90;;;;;;5046202;28;20412;-74
2024/01/16 09:26:41;;;;;;;;;;;1.50;99.90;;;;;;5040333;28;20029;-73
2024/01/16 09:29:08;;;;;;;;;;;1.40;99.90;;;;;;5045336;28;19934;-75
2024/01/16 09:31:35;;;;;;;;;;;1.40;99.90;;;;;;5041240;28;20023;-75
2024/01/16 09:34:01;;;;;;;;;;;1.40;99.90;;;;;;5057679;28;20061;-75
2024/01/16 09:36:26;;;;;;;;;;;1.40;99.90;;;;;;5037774;28;20119;-76
2024/01/16 09:38:52;;;;;;;;;;;1.90;99.90;;;;;;5042667;28;20761;-77
2024/01/16 09:41:18;;;;;;;;;;;1.40;99.90;;;;;;5050700;28;19940;-77
2024/01/16 09:43:44;;;;;;;;;;;1.40;99.90;;;;;;5062550;28;20003;-77
2024/01/16 09:46:10;;;;;;;;;;;1.40;99.90;;;;;;5045935;28;19924;-76
2024/01/16 09:48:36;;;;;;;;;;;1.50;99.90;;;;;;5055336;28;19920;-75
2024/01/16 09:51:01;;;;;;;;;;;1.40;99.90;;;;;;5050847;28;19966;-77
2024/01/16 09:53:27;;;;;;;;;;;1.50;99.90;;;;;;5046391;28;19929;-74
2024/01/16 09:55:54;;;;;;;;;;;1.50;99.90;;;;;;5051987;28;19920;-74
2024/01/16 09:58:20;;;;;;;;;;;1.50;99.90;;;;;;5048205;28;19921;-74
2024/01/16 10:00:46;;;;;;;;;;;1.60;99.90;;;;;;5052849;28;19947;-75
2024/01/16 10:03:12;;;;;;;;;;;1.80;99.90;;;;;;5044640;28;19973;-74
2024/01/16 10:05:39;;;;;;;;;;;1.60;99.90;;;;;;5053139;28;19981;-74
2024/01/16 10:08:05;;;;;;;;;;;1.70;99.90;;;;;;5043790;28;19928;-74
2024/01/16 10:10:30;;;;;;;;;;;1.70;99.90;;;;;;5044837;28;19924;-73
2024/01/16 10:12:56;;;;;;;;;;;3.30;99.90;;;;;;5034359;28;19940;-73
2024/01/16 10:15:22;;;;;;;;;;;1.80;99.90;;;;;;5045770;28;19921;-73
2024/01/16 10:17:47;;;;;;;;;;;1.80;99.90;;;;;;5047541;28;19920;-74
2024/01/16 10:20:13;;;;;;;;;;;1.80;99.90;;;;;;5052479;28;19928;-74
2024/01/16 10:22:39;;;;;;;;;;;1.90;99.90;;;;;;5063701;28;19924;-74
2024/01/16 10:25:12;;;;;;;;;;;1.90;99.90;;;;;;5047089;28;19924;-74
2024/01/16 10:27:39;;;;;;;;;;;1.90;99.90;;;;;;5042969;28;19925;-75
2024/01/16 10:30:05;;;;;;;;;;;1.90;99.90;;;;;;5033274;28;20395;-73
2024/01/16 10:32:31;;;;;;;;;;;1.90;99.90;;;;;;5054621;28;20298;-75
2024/01/16 10:35:17;;;;;;;;;;;1.80;99.90;;;;;;5059004;28;19999;-74
2024/01/16 10:37:44;;;;;;;;;;;2.20;99.90;;;;;;5029002;28;20316;-74
2024/01/16 10:40:10;;;;;;;;;;;1.80;99.90;;;;;;5059473;28;20014;-73
2024/01/16 10:42:37;;;;;;;;;;;3.30;99.90;;;;;;5049874;28;20299;-74
2024/01/16 10:45:03;;;;;;;;;;;2.30;99.90;;;;;;5046374;28;20118;-73
2024/01/16 10:47:29;;;;;;;;;;;1.80;99.90;;;;;;5045985;28;19927;-74
2024/01/16 10:49:54;;;;;;;;;;;3.30;99.90;;;;;;5039692;28;20303;-75
2024/01/16 10:52:22;;;;;;;;;;;1.80;99.90;;;;;;5068478;28;19920;-75
2024/01/16 10:54:50;;;;;;;;;;;1.80;99.90;;;;;;5051263;28;19931;-74
2024/01/16 10:57:16;;;;;;;;;;;2.20;99.90;;;;;;5051842;28;19920;-75
2024/01/16 11:00:08;;;;;;;;;;;1.80;99.90;;;;;;5052443;28;19927;-75
2024/01/16 11:02:38;;;;;;;;;;;1.80;99.90;;;;;;5047647;28;19920;-77
2024/01/16 11:05:04;;;;;;;;;;;1.90;99.90;;;;;;5069316;28;19924;-77
2024/01/16 11:07:30;;;;;;;;;;;1.90;99.90;;;;;;5051640;28;20140;-78
2024/01/16 11:09:56;;;;;;;;;;;2.30;99.90;;;;;;5052671;28;19920;-77
2024/01/16 11:12:22;;;;;;;;;;;1.90;99.90;;;;;;5051602;28;19924;-77
2024/01/16 11:14:51;;;;;;;;;;;2.40;99.90;;;;;;5051722;28;19927;-77
2024/01/16 11:17:18;;;;;;;;;;;2.10;99.90;;;;;;5065802;28;19932;-79
2024/01/16 11:19:44;;;;;;;;;;;2.10;99.90;;;;;;5052682;28;19999;-79
2024/01/16 11:22:10;;;;;;;;;;;2.60;99.90;;;;;;5050639;28;19920;-78
2024/01/16 11:24:36;;;;;;;;;;;2.10;99.90;;;;;;5051576;28;19931;-78
2024/01/16 11:27:01;;;;;;;;;;;2.10;99.90;;;;;;5049361;28;19928;-77
2024/01/16 11:29:27;;;;;;;;;;;2.10;99.90;;;;;;5033660;28;19993;-79
2024/01/16 11:31:53;;;;;;;;;;;2.10;99.90;;;;;;5043476;28;20292;-79
2024/01/16 11:34:38;;;;;;;;;;;2.20;99.90;;;;;;5053812;28;19966;-76
2024/01/16 11:37:06;;;;;;;;;;;2.20;99.90;;;;;;5068710;28;19986;-77
2024/01/16 11:39:32;;;;;;;;;;;2.30;99.90;;;;;;5066871;28;20340;-77
2024/01/16 11:41:58;;;;;;;;;;;2.30;99.90;;;;;;5050540;28;19921;-77
2024/01/16 11:44:50;;;;;;;;;;;2.30;99.90;;;;;;5050419;28;20398;-77
2024/01/16 11:47:20;;;;;;;;;;;2.30;99.90;;;;;;5048413;28;19931;-76
2024/01/16 11:49:46;;;;;;;;;;;2.20;99.90;;;;;;5069627;28;19978;-75
2024/01/16 11:52:13;;;;;;;;;;;2.20;99.90;;;;;;5069738;28;20284;-77
2024/01/16 11:54:42;;;;;;;;;;;2.20;99.90;;;;;;5051267;28;20364;-77
2024/01/16 11:57:10;;;;;;;;;;;2.20;99.90;;;;;;5051887;28;19920;-78
2024/01/16 11:59:39;;;;;;;;;;;2.20;99.90;;;;;;5050655;28;20475;-78
2024/01/16 12:02:09;;;;;;;;;;;2.20;99.90;;;;;;5048288;28;19939;-78
2024/01/16 12:04:34;;;;;;;;;;;2.20;99.90;;;;;;5051827;28;19924;-78
2024/01/16 12:07:00;;;;;;;;;;;2.30;99.90;;;;;;5050389;28;19924;-77
2024/01/16 12:09:27;;;;;;;;;;;2.20;99.90;;;;;;5050030;28;19929;-77
2024/01/16 12:11:57;;;;;;;;;;;2.20;99.90;;;;;;5050523;28;19928;-78
2024/01/16 12:14:23;;;;;;;;;;;2.20;99.90;;;;;;5050632;28;20322;-76
2024/01/16 12:16:48;;;;;;;;;;;2.20;99.90;;;;;;5067204;28;20444;-78
2024/01/16 12:19:14;;;;;;;;;;;2.20;99.90;;;;;;5045892;28;19930;-77
2024/01/16 12:21:46;;;;;;;;;;;2.40;99.90;;;;;;5050737;28;19981;-77
2024/01/16 12:24:11;;;;;;;;;;;2.20;99.90;;;;;;5029048;28;19920;-78
2024/01/16 12:26:37;;;;;;;;;;;2.10;99.90;;;;;;5049988;28;19921;-77
2024/01/16 12:29:03;;;;;;;;;;;2.10;99.90;;;;;;5043860;28;19924;-78
2024/01/16 12:31:29;;;;;;;;;;;2.10;99.90;;;;;;5046332;28;20305;-79
2024/01/16 12:34:07;;;;;;;;;;;2.30;99.90;;;;;;5037861;28;19979;-78
2024/01/16 12:36:33;;;;;;;;;;;2.10;99.90;;;;;;5066649;28;20011;-78
2024/01/16 12:38:59;;;;;;;;;;;2.20;99.90;;;;;;5040793;28;19974;-77
2024/01/16 12:41:25;;;;;;;;;;;2.00;99.90;;;;;;5037969;28;19925;-77
2024/01/16 12:43:51;;;;;;;;;;;2.10;99.90;;;;;;5045564;28;20005;-77
2024/01/16 12:46:19;;;;;;;;;;;2.20;99.90;;;;;;5047988;28;20388;-77
2024/01/16 12:48:44;;;;;;;;;;;2.30;99.90;;;;;;5046912;28;19928;-77
2024/01/16 12:51:12;;;;;;;;;;;2.10;99.90;;;;;;5054856;28;19920;-77
2024/01/16 12:53:39;;;;;;;;;;;2.10;99.90;;;;;;5055323;28;19999;-77
2024/01/16 12:56:05;;;;;;;;;;;2.10;99.90;;;;;;5049194;28;19970;-78
2024/01/16 12:58:34;;;;;;;;;;;2.00;99.90;;;;;;5054926;28;20392;-78
2024/01/16 13:01:18;;;;;;;;;;;2.00;99.90;;;;;;5069186;28;19927;-78
2024/01/16 13:03:44;;;;;;;;;;;2.10;99.90;;;;;;5072041;28;19925;-77
2024/01/16 13:06:10;;;;;;;;;;;2.40;99.90;;;;;;5055109;28;19927;-78
2024/01/16 13:08:36;;;;;;;;;;;2.20;99.90;;;;;;5055160;28;19920;-77
2024/01/16 13:11:03;;;;;;;;;;;2.50;99.90;;;;;;5050505;28;19999;-77
2024/01/16 13:13:29;;;;;;;;;;;2.30;99.90;;;;;;5035918;28;20419;-77
2024/01/16 13:15:54;;;;;;;;;;;2.40;99.90;;;;;;5025411;28;19994;-76
2024/01/16 13:18:24;;;;;;;;;;;2.60;99.90;;;;;;5010801;28;19921;-76
2024/01/16 13:20:51;;;;;;;;;;;2.60;99.90;;;;;;5021876;28;19974;-76
2024/01/16 13:23:17;;;;;;;;;;;2.60;99.90;;;;;;5035468;28;19925;-76
2024/01/16 13:25:44;;;;;;;;;;;2.60;99.90;;;;;;5022667;28;19921;-76
2024/01/16 13:28:10;;;;;;;;;;;2.60;99.90;;;;;;5025664;28;20284;-77
2024/01/16 13:30:36;;;;;;;;;;;2.60;99.90;;;;;;5034635;28;19921;-77
2024/01/16 13:33:02;;;;;;;;;;;2.80;99.90;;;;;;5032862;28;19921;-76
2024/01/16 13:35:28;;;;;;;;;;;2.50;99.90;;;;;;5052800;28;19999;-76
2024/01/16 13:37:53;;;;;;;;;;;2.50;99.90;;;;;;5032977;28;19928;-76
2024/01/16 13:40:22;;;;;;;;;;;2.40;99.90;;;;;;5025962;28;20445;-76
2024/01/16 13:42:48;;;;;;;;;;;2.40;99.90;;;;;;5016129;28;20090;-76
2024/01/16 13:45:14;;;;;;;;;;;2.40;99.90;;;;;;5032028;28;20531;-75
2024/01/16 13:47:40;;;;;;;;;;;2.30;99.90;;;;;;5033658;28;19963;-76
2024/01/16 13:50:06;;;;;;;;;;;2.30;99.90;;;;;;5033841;28;19921;-77
2024/01/16 13:52:32;;;;;;;;;;;2.30;99.90;;;;;;5030389;28;19928;-76
2024/01/16 13:54:59;;;;;;;;;;;2.30;99.90;;;;;;5031910;28;19920;-76
2024/01/16 13:57:24;;;;;;;;;;;2.30;99.90;;;;;;5033839;28;19936;-76
2024/01/16 13:59:50;;;;;;;;;;;2.30;99.90;;;;;;5049396;28;19943;-76
2024/01/16 14:02:16;;;;;;;;;;;2.30;99.90;;;;;;5032805;28;19931;-75
2024/01/16 14:04:42;;;;;;;;;;;2.30;99.90;;;;;;5051990;28;19929;-76
2024/01/16 14:07:07;;;;;;;;;;;2.40;99.90;;;;;;5032702;28;20000;-77
2024/01/16 14:09:33;;;;;;;;;;;2.30;99.90;;;;;;5034429;28;19920;-77
2024/01/16 14:11:59;;;;;;;;;;;2.20;99.90;;;;;;5051189;28;20347;-77
2024/01/16 14:14:24;;;;;;;;;;;2.20;99.90;;;;;;5031619;28;20058;-76
2024/01/16 14:16:50;;;;;;;;;;;2.20;99.90;;;;;;5043331;28;20012;-76
2024/01/16 14:19:17;;;;;;;;;;;2.20;99.90;;;;;;5048616;28;20212;-77
2024/01/16 14:21:43;;;;;;;;;;;2.20;99.90;;;;;;5048770;28;19921;-77
2024/01/16 14:24:09;;;;;;;;;;;2.10;99.90;;;;;;5049684;28;20375;-76